createdAt,value
2022-12-19T00:00:36.946Z,1024.79
2022-12-19T00:01:37.013Z,1024.76
2022-12-19T00:02:37.028Z,1024.67
2022-12-19T00:03:36.974Z,1024.73
2022-12-19T00:04:36.911Z,1024.64
2022-12-19T00:05:36.904Z,1024.65
2022-12-19T00:06:36.883Z,1024.63
2022-12-19T00:07:36.881Z,1024.59
2022-12-19T00:08:36.872Z,1024.60
2022-12-19T00:09:36.866Z,1024.62
2022-12-19T00:10:36.852Z,1024.58
2022-12-19T00:11:36.970Z,1024.53
2022-12-19T00:12:36.830Z,1024.58
2022-12-19T00:13:40.142Z,1024.54
2022-12-19T00:14:36.819Z,1024.53
2022-12-19T00:15:36.808Z,1024.50
2022-12-19T00:16:36.961Z,1024.48
2022-12-19T00:17:36.790Z,1024.49
2022-12-19T00:18:36.783Z,1024.43
2022-12-19T00:19:36.778Z,1024.38
2022-12-19T00:20:36.767Z,1024.39
2022-12-19T00:21:36.758Z,1024.39
2022-12-19T00:22:36.742Z,1024.38
2022-12-19T00:23:36.738Z,1024.44
2022-12-19T00:24:36.724Z,1024.40
2022-12-19T00:25:36.719Z,1024.42
2022-12-19T00:26:36.709Z,1024.38
2022-12-19T00:27:36.826Z,1024.38
2022-12-19T00:28:36.692Z,1024.40
2022-12-19T00:29:36.685Z,1024.36
2022-12-19T00:30:36.672Z,1024.31
2022-12-19T00:31:36.826Z,1024.30
2022-12-19T00:32:36.653Z,1024.31
2022-12-19T00:33:37.855Z,1024.25
2022-12-19T00:34:36.637Z,1024.26
2022-12-19T00:35:36.631Z,1024.27
2022-12-19T00:36:36.619Z,1024.30
2022-12-19T00:37:36.616Z,1024.29
2022-12-19T00:38:36.607Z,1024.24
2022-12-19T00:39:36.594Z,1024.21
2022-12-19T00:40:36.586Z,1024.23
2022-12-19T00:41:36.584Z,1024.24
2022-12-19T00:42:36.568Z,1024.17
2022-12-19T00:43:36.699Z,1024.25
2022-12-19T00:44:36.551Z,1024.28
2022-12-19T00:45:36.615Z,1024.32
2022-12-19T00:46:36.529Z,1024.29
2022-12-19T00:47:36.524Z,1024.26
2022-12-19T00:48:36.513Z,1024.33
2022-12-19T00:49:36.508Z,1024.34
2022-12-19T00:50:36.494Z,1024.33
2022-12-19T00:51:36.488Z,1024.38
2022-12-19T00:52:36.478Z,1024.38
2022-12-19T00:53:36.476Z,1024.39
2022-12-19T00:54:36.501Z,1024.37
2022-12-19T00:55:36.454Z,1024.39
2022-12-19T00:56:37.992Z,1024.39
2022-12-19T00:57:36.436Z,1024.41
2022-12-19T00:58:36.420Z,1024.43
2022-12-19T00:59:36.546Z,1024.42
2022-12-19T01:00:36.452Z,1024.37
2022-12-19T01:01:36.701Z,1024.41
2022-12-19T01:02:36.637Z,1024.39
2022-12-19T01:03:36.379Z,1024.38
2022-12-19T01:04:41.354Z,1024.37
2022-12-19T01:05:36.362Z,1024.42
2022-12-19T01:06:36.351Z,1024.46
2022-12-19T01:07:36.346Z,1024.46
2022-12-19T01:08:36.337Z,1024.47
2022-12-19T01:09:36.330Z,1024.48
2022-12-19T01:10:36.316Z,1024.49
2022-12-19T01:11:36.313Z,1024.43
2022-12-19T01:12:36.301Z,1024.39
2022-12-19T01:13:36.293Z,1024.30
2022-12-19T01:14:36.283Z,1024.27
2022-12-19T01:15:36.395Z,1024.16
2022-12-19T01:16:36.283Z,1024.09
2022-12-19T01:17:40.776Z,1023.99
2022-12-19T01:18:36.257Z,1023.93
2022-12-19T01:19:41.887Z,1023.95
2022-12-19T01:20:36.233Z,1023.90
2022-12-19T01:21:36.233Z,1023.88
2022-12-19T01:22:36.216Z,1023.91
2022-12-19T01:23:36.212Z,1023.89
2022-12-19T01:24:36.195Z,1023.87
2022-12-19T01:25:36.879Z,1023.91
2022-12-19T01:26:36.178Z,1023.80
2022-12-19T01:27:36.175Z,1023.80
2022-12-19T01:28:36.161Z,1023.79
2022-12-19T01:29:38.870Z,1023.79
2022-12-19T01:30:36.149Z,1023.83
2022-12-19T01:31:36.321Z,1023.89
2022-12-19T01:32:36.134Z,1023.90
2022-12-19T01:33:36.120Z,1023.83
2022-12-19T01:34:36.109Z,1023.82
2022-12-19T01:35:36.102Z,1023.79
2022-12-19T01:36:38.633Z,1023.73
2022-12-19T01:37:36.085Z,1023.70
2022-12-19T01:38:36.075Z,1023.70
2022-12-19T01:39:36.068Z,1023.59
2022-12-19T01:40:36.056Z,1023.57
2022-12-19T01:41:36.053Z,1023.58
2022-12-19T01:42:36.039Z,1023.57
2022-12-19T01:43:36.036Z,1023.49
2022-12-19T01:44:36.022Z,1023.52
2022-12-19T01:45:39.457Z,1023.49
2022-12-19T01:46:36.117Z,1023.42
2022-12-19T01:47:36.027Z,1023.37
2022-12-19T01:48:35.988Z,1023.32
2022-12-19T01:49:35.986Z,1023.29
2022-12-19T01:50:35.972Z,1023.30
2022-12-19T01:51:35.971Z,1023.27
2022-12-19T01:52:35.958Z,1023.24
2022-12-19T01:53:36.273Z,1023.25
2022-12-19T01:54:35.940Z,1023.15
2022-12-19T01:55:35.927Z,1023.12
2022-12-19T01:56:35.891Z,1023.09
2022-12-19T01:57:35.881Z,1023.10
2022-12-19T01:58:35.866Z,1023.06
2022-12-19T01:59:35.879Z,1023.03
2022-12-19T02:00:35.859Z,1023.05
2022-12-19T02:01:35.935Z,1023.03
2022-12-19T02:02:35.911Z,1022.99
2022-12-19T02:03:35.955Z,1023.00
2022-12-19T02:04:35.815Z,1022.99
2022-12-19T02:05:35.808Z,1022.95
2022-12-19T02:06:35.802Z,1022.93
2022-12-19T02:07:35.792Z,1022.96
2022-12-19T02:08:35.800Z,1022.90
2022-12-19T02:09:35.774Z,1022.94
2022-12-19T02:10:35.764Z,1022.91
2022-12-19T02:11:35.761Z,1022.86
2022-12-19T02:12:35.744Z,1022.83
2022-12-19T02:13:35.745Z,1022.80
2022-12-19T02:14:35.737Z,1022.82
2022-12-19T02:15:35.726Z,1022.79
2022-12-19T02:16:35.738Z,1022.73
2022-12-19T02:17:35.712Z,1022.75
2022-12-19T02:18:35.696Z,1022.76
2022-12-19T02:19:35.857Z,1022.70
2022-12-19T02:20:35.680Z,1022.72
2022-12-19T02:21:35.678Z,1022.78
2022-12-19T02:22:35.662Z,1022.70
2022-12-19T02:23:35.654Z,1022.66
2022-12-19T02:24:35.641Z,1022.67
2022-12-19T02:25:35.645Z,1022.64
2022-12-19T02:26:35.631Z,1022.64
2022-12-19T02:27:39.940Z,1022.54
2022-12-19T02:28:35.611Z,1022.54
2022-12-19T02:29:35.609Z,1022.60
2022-12-19T02:30:35.602Z,1022.62
2022-12-19T02:31:35.616Z,1022.54
2022-12-19T02:32:36.091Z,1022.54
2022-12-19T02:33:35.572Z,1022.62
2022-12-19T02:34:37.869Z,1022.61
2022-12-19T02:35:35.674Z,1022.62
2022-12-19T02:36:38.894Z,1022.60
2022-12-19T02:37:35.536Z,1022.61
2022-12-19T02:38:35.527Z,1022.63
2022-12-19T02:39:35.522Z,1022.63
2022-12-19T02:40:35.513Z,1022.69
2022-12-19T02:41:35.507Z,1022.67
2022-12-19T02:42:35.491Z,1022.68
2022-12-19T02:43:35.512Z,1022.66
2022-12-19T02:44:35.482Z,1022.68
2022-12-19T02:45:35.592Z,1022.63
2022-12-19T02:46:35.480Z,1022.60
2022-12-19T02:47:35.502Z,1022.62
2022-12-19T02:48:35.443Z,1022.62
2022-12-19T02:49:35.445Z,1022.57
2022-12-19T02:50:35.436Z,1022.59
2022-12-19T02:51:35.536Z,1022.56
2022-12-19T02:52:35.418Z,1022.56
2022-12-19T02:53:35.444Z,1022.58
2022-12-19T02:54:35.391Z,1022.59
2022-12-19T02:55:35.385Z,1022.61
2022-12-19T02:56:35.384Z,1022.58
2022-12-19T02:57:35.368Z,1022.65
2022-12-19T02:58:35.356Z,1022.60
2022-12-19T02:59:35.356Z,1022.65
2022-12-19T03:00:35.349Z,1022.61
2022-12-19T03:01:35.498Z,1022.56
2022-12-19T03:02:35.435Z,1022.54
2022-12-19T03:03:35.414Z,1022.52
2022-12-19T03:04:35.312Z,1022.52
2022-12-19T03:05:35.306Z,1022.55
2022-12-19T03:06:35.296Z,1022.57
2022-12-19T03:07:35.312Z,1022.50
2022-12-19T03:08:35.277Z,1022.49
2022-12-19T03:09:35.275Z,1022.48
2022-12-19T03:10:35.258Z,1022.47
2022-12-19T03:11:35.252Z,1022.52
2022-12-19T03:12:35.241Z,1022.50
2022-12-19T03:13:35.233Z,1022.51
2022-12-19T03:14:35.224Z,1022.57
2022-12-19T03:15:35.219Z,1022.57
2022-12-19T03:16:35.255Z,1022.56
2022-12-19T03:17:35.203Z,1022.54
2022-12-19T03:18:35.191Z,1022.55
2022-12-19T03:19:35.240Z,1022.56
2022-12-19T03:20:35.174Z,1022.49
2022-12-19T03:21:35.167Z,1022.45
2022-12-19T03:22:35.153Z,1022.45
2022-12-19T03:23:35.294Z,1022.49
2022-12-19T03:24:35.144Z,1022.45
2022-12-19T03:25:35.138Z,1022.48
2022-12-19T03:26:35.124Z,1022.46
2022-12-19T03:27:35.118Z,1022.42
2022-12-19T03:28:35.109Z,1022.41
2022-12-19T03:29:35.109Z,1022.40
2022-12-19T03:30:35.209Z,1022.38
2022-12-19T03:31:35.090Z,1022.37
2022-12-19T03:32:35.072Z,1022.34
2022-12-19T03:33:35.068Z,1022.37
2022-12-19T03:34:35.055Z,1022.32
2022-12-19T03:35:35.053Z,1022.36
2022-12-19T03:36:35.041Z,1022.38
2022-12-19T03:37:35.031Z,1022.33
2022-12-19T03:38:35.023Z,1022.34
2022-12-19T03:39:35.144Z,1022.34
2022-12-19T03:40:35.005Z,1022.31
2022-12-19T03:41:34.991Z,1022.28
2022-12-19T03:42:34.988Z,1022.25
2022-12-19T03:43:34.976Z,1022.23
2022-12-19T03:44:34.971Z,1022.22
2022-12-19T03:45:34.970Z,1022.27
2022-12-19T03:46:34.956Z,1022.23
2022-12-19T03:47:34.944Z,1022.23
2022-12-19T03:48:34.943Z,1022.23
2022-12-19T03:49:34.925Z,1022.27
2022-12-19T03:50:34.922Z,1022.21
2022-12-19T03:51:34.908Z,1022.24
2022-12-19T03:52:34.908Z,1022.23
2022-12-19T03:53:34.907Z,1022.27
2022-12-19T03:54:34.924Z,1022.29
2022-12-19T03:55:34.997Z,1022.22
2022-12-19T03:56:34.868Z,1022.28
2022-12-19T03:57:34.854Z,1022.19
2022-12-19T03:58:34.851Z,1022.25
2022-12-19T03:59:34.841Z,1022.29
2022-12-19T04:00:34.838Z,1022.29
2022-12-19T04:01:34.938Z,1022.23
2022-12-19T04:02:34.861Z,1022.28
2022-12-19T04:03:34.883Z,1022.30
2022-12-19T04:04:34.800Z,1022.33
2022-12-19T04:05:34.791Z,1022.29
2022-12-19T04:06:34.786Z,1022.26
2022-12-19T04:07:34.770Z,1022.27
2022-12-19T04:08:34.771Z,1022.22
2022-12-19T04:09:34.756Z,1022.31
2022-12-19T04:10:34.763Z,1022.32
2022-12-19T04:11:34.864Z,1022.25
2022-12-19T04:12:34.733Z,1022.30
2022-12-19T04:13:34.722Z,1022.29
2022-12-19T04:14:34.715Z,1022.30
2022-12-19T04:15:34.769Z,1022.25
2022-12-19T04:16:34.701Z,1022.23
2022-12-19T04:17:34.693Z,1022.23
2022-12-19T04:18:34.686Z,1022.22
2022-12-19T04:19:37.478Z,1022.13
2022-12-19T04:20:34.667Z,1022.15
2022-12-19T04:21:34.657Z,1022.10
2022-12-19T04:22:34.650Z,1022.11
2022-12-19T04:23:34.634Z,1022.13
2022-12-19T04:24:34.636Z,1022.11
2022-12-19T04:25:34.626Z,1022.06
2022-12-19T04:26:16.794Z,1022.07
2022-12-19T04:27:16.919Z,1022.03
2022-12-19T04:28:16.785Z,1022.09
2022-12-19T04:29:16.767Z,1022.06
2022-12-19T04:30:16.750Z,1022.10
2022-12-19T04:31:16.770Z,1022.07
2022-12-19T04:32:16.742Z,1022.07
2022-12-19T04:33:16.731Z,1022.10
2022-12-19T04:34:16.726Z,1022.09
2022-12-19T04:35:16.717Z,1022.13
2022-12-19T04:36:16.707Z,1022.14
2022-12-19T04:37:16.701Z,1022.10
2022-12-19T04:38:16.694Z,1022.21
2022-12-19T04:39:16.691Z,1022.22
2022-12-19T04:40:16.668Z,1022.23
2022-12-19T04:41:16.681Z,1022.23
2022-12-19T04:42:16.664Z,1022.26
2022-12-19T04:43:16.766Z,1022.25
2022-12-19T04:44:16.634Z,1022.19
2022-12-19T04:45:16.631Z,1022.24
2022-12-19T04:46:16.652Z,1022.21
2022-12-19T04:47:16.610Z,1022.22
2022-12-19T04:48:16.607Z,1022.23
2022-12-19T04:49:16.594Z,1022.21
2022-12-19T04:50:16.589Z,1022.23
2022-12-19T04:51:16.578Z,1022.12
2022-12-19T04:52:16.571Z,1022.14
2022-12-19T04:53:16.557Z,1022.11
2022-12-19T04:54:16.550Z,1022.13
2022-12-19T04:55:16.554Z,1022.10
2022-12-19T04:56:16.539Z,1022.06
2022-12-19T04:57:16.528Z,1022.04
2022-12-19T04:58:21.670Z,1022.06
2022-12-19T04:59:16.628Z,1022.01
2022-12-19T05:00:16.513Z,1021.99
2022-12-19T05:01:16.589Z,1022.04
2022-12-19T05:02:16.664Z,1022.02
2022-12-19T05:03:16.549Z,1021.89
2022-12-19T05:04:16.466Z,1021.86
2022-12-19T05:05:16.472Z,1021.82
2022-12-19T05:06:16.449Z,1021.74
2022-12-19T05:07:16.447Z,1021.79
2022-12-19T05:08:16.432Z,1021.79
2022-12-19T05:09:16.426Z,1021.84
2022-12-19T05:10:16.417Z,1021.80
2022-12-19T05:11:19.737Z,1021.78
2022-12-19T05:12:16.399Z,1021.75
2022-12-19T05:13:16.401Z,1021.81
2022-12-19T05:14:16.387Z,1021.81
2022-12-19T05:15:16.498Z,1021.91
2022-12-19T05:16:16.442Z,1021.89
2022-12-19T05:17:16.362Z,1021.89
2022-12-19T05:18:16.359Z,1021.90
2022-12-19T05:19:16.347Z,1021.92
2022-12-19T05:20:16.345Z,1021.83
2022-12-19T05:21:16.330Z,1021.85
2022-12-19T05:22:16.326Z,1021.83
2022-12-19T05:23:17.325Z,1021.80
2022-12-19T05:24:16.301Z,1021.77
2022-12-19T05:25:16.298Z,1021.80
2022-12-19T05:26:16.280Z,1021.80
2022-12-19T05:27:16.274Z,1021.88
2022-12-19T05:28:16.267Z,1021.78
2022-12-19T05:29:16.260Z,1021.84
2022-12-19T05:30:16.249Z,1021.78
2022-12-19T05:31:16.435Z,1021.80
2022-12-19T05:32:16.236Z,1021.72
2022-12-19T05:33:16.228Z,1021.77
2022-12-19T05:34:16.227Z,1021.77
2022-12-19T05:35:16.208Z,1021.78
2022-12-19T05:36:16.200Z,1021.79
2022-12-19T05:37:16.192Z,1021.75
2022-12-19T05:38:16.181Z,1021.76
2022-12-19T05:39:16.178Z,1021.69
2022-12-19T05:40:16.182Z,1021.69
2022-12-19T05:41:16.162Z,1021.68
2022-12-19T05:42:16.142Z,1021.64
2022-12-19T05:43:16.140Z,1021.63
2022-12-19T05:44:16.130Z,1021.63
2022-12-19T05:45:16.130Z,1021.54
2022-12-19T05:46:16.179Z,1021.60
2022-12-19T05:47:16.233Z,1021.54
2022-12-19T05:48:16.105Z,1021.63
2022-12-19T05:49:16.102Z,1021.69
2022-12-19T05:50:16.079Z,1021.64
2022-12-19T05:51:16.077Z,1021.61
2022-12-19T05:52:16.062Z,1021.64
2022-12-19T05:53:16.059Z,1021.63
2022-12-19T05:54:16.051Z,1021.64
2022-12-19T05:55:16.041Z,1021.61
2022-12-19T05:56:16.053Z,1021.54
2022-12-19T05:57:16.036Z,1021.53
2022-12-19T05:58:16.012Z,1021.49
2022-12-19T05:59:16.009Z,1021.50
2022-12-19T06:00:16.007Z,1021.50
2022-12-19T06:01:16.002Z,1021.39
2022-12-19T06:02:16.143Z,1021.47
2022-12-19T06:03:16.237Z,1021.48
2022-12-19T06:04:15.963Z,1021.42
2022-12-19T06:05:15.966Z,1021.39
2022-12-19T06:06:15.951Z,1021.36
2022-12-19T06:07:20.757Z,1021.34
2022-12-19T06:08:15.941Z,1021.37
2022-12-19T06:09:15.931Z,1021.38
2022-12-19T06:10:15.913Z,1021.38
2022-12-19T06:11:15.909Z,1021.39
2022-12-19T06:12:15.901Z,1021.33
2022-12-19T06:13:17.680Z,1021.37
2022-12-19T06:14:15.880Z,1021.34
2022-12-19T06:15:15.880Z,1021.33
2022-12-19T06:16:15.904Z,1021.40
2022-12-19T06:17:15.862Z,1021.30
2022-12-19T06:18:15.846Z,1021.34
2022-12-19T06:19:15.973Z,1021.31
2022-12-19T06:20:15.831Z,1021.20
2022-12-19T06:21:15.871Z,1021.23
2022-12-19T06:22:15.813Z,1021.12
2022-12-19T06:23:15.813Z,1021.12
2022-12-19T06:24:15.799Z,1021.10
2022-12-19T06:25:15.793Z,1021.12
2022-12-19T06:26:19.383Z,1021.14
2022-12-19T06:27:15.776Z,1021.24
2022-12-19T06:28:15.767Z,1021.14
2022-12-19T06:29:15.779Z,1021.18
2022-12-19T06:30:15.753Z,1021.16
2022-12-19T06:31:15.894Z,1021.18
2022-12-19T06:32:15.732Z,1021.12
2022-12-19T06:33:15.728Z,1021.11
2022-12-19T06:34:39.374Z,1021.07
2022-12-19T06:35:15.870Z,1021.12
2022-12-19T06:36:15.717Z,1021.13
2022-12-19T06:37:15.704Z,1021.10
2022-12-19T06:38:15.685Z,1021.11
2022-12-19T06:39:15.680Z,1021.07
2022-12-19T06:40:15.684Z,1021.04
2022-12-19T06:41:15.665Z,1021.06
2022-12-19T06:42:15.655Z,1021.04
2022-12-19T06:43:15.655Z,1021.09
2022-12-19T06:44:15.637Z,1021.11
2022-12-19T06:45:15.632Z,1021.15
2022-12-19T06:46:15.687Z,1021.16
2022-12-19T06:47:15.616Z,1021.03
2022-12-19T06:48:15.603Z,1021.02
2022-12-19T06:49:15.607Z,1021.09
2022-12-19T06:50:15.592Z,1021.07
2022-12-19T06:51:15.743Z,1020.98
2022-12-19T06:52:15.574Z,1020.98
2022-12-19T06:53:15.567Z,1020.99
2022-12-19T06:54:15.564Z,1021.03
2022-12-19T06:55:15.556Z,1021.02
2022-12-19T06:56:15.547Z,1021.03
2022-12-19T06:57:15.545Z,1021.02
2022-12-19T06:58:18.176Z,1021.10
2022-12-19T06:59:15.521Z,1021.01
2022-12-19T07:00:15.517Z,1021.12
2022-12-19T07:01:15.542Z,1021.06
2022-12-19T07:02:15.635Z,1021.09
2022-12-19T07:03:15.561Z,1021.11
2022-12-19T07:04:15.485Z,1021.10
2022-12-19T07:05:15.469Z,1021.12
2022-12-19T07:06:15.506Z,1021.16
2022-12-19T07:07:15.579Z,1021.19
2022-12-19T07:08:15.446Z,1021.16
2022-12-19T07:09:15.460Z,1021.15
2022-12-19T07:10:15.481Z,1021.23
2022-12-19T07:11:15.434Z,1021.19
2022-12-19T07:12:15.419Z,1021.25
2022-12-19T07:13:15.409Z,1021.26
2022-12-19T07:14:15.413Z,1021.26
2022-12-19T07:15:15.398Z,1021.22
2022-12-19T07:16:15.429Z,1021.25
2022-12-19T07:17:15.385Z,1021.22
2022-12-19T07:18:15.375Z,1021.21
2022-12-19T07:19:15.388Z,1021.20
2022-12-19T07:20:15.354Z,1021.18
2022-12-19T07:21:15.348Z,1021.26
2022-12-19T07:22:15.333Z,1021.17
2022-12-19T07:23:15.452Z,1021.12
2022-12-19T07:24:15.324Z,1021.12
2022-12-19T07:25:15.321Z,1021.10
2022-12-19T07:26:15.311Z,1021.16
2022-12-19T07:27:15.313Z,1021.14
2022-12-19T07:28:15.300Z,1021.13
2022-12-19T07:29:15.301Z,1021.13
2022-12-19T07:30:15.277Z,1021.16
2022-12-19T07:31:15.300Z,1021.15
2022-12-19T07:32:15.260Z,1021.14
2022-12-19T07:33:21.018Z,1021.13
2022-12-19T07:34:15.254Z,1021.03
2022-12-19T07:35:15.244Z,1021.03
2022-12-19T07:36:15.234Z,1021.06
2022-12-19T07:37:15.231Z,1021.09
2022-12-19T07:38:15.214Z,1021.13
2022-12-19T07:39:15.323Z,1021.12
2022-12-19T07:40:15.213Z,1021.12
2022-12-19T07:41:15.199Z,1021.06
2022-12-19T07:42:15.185Z,1021.13
2022-12-19T07:43:15.184Z,1021.15
2022-12-19T07:44:15.174Z,1021.11
2022-12-19T07:45:15.167Z,1021.17
2022-12-19T07:46:15.242Z,1021.18
2022-12-19T07:47:15.153Z,1021.18
2022-12-19T07:48:15.138Z,1021.13
2022-12-19T07:49:21.006Z,1021.18
2022-12-19T07:50:15.143Z,1021.09
2022-12-19T07:51:15.125Z,1021.09
2022-12-19T07:52:15.119Z,1021.10
2022-12-19T07:53:15.107Z,1021.07
2022-12-19T07:54:15.098Z,1021.07
2022-12-19T07:55:15.214Z,1021.06
2022-12-19T07:56:15.083Z,1021.08
2022-12-19T07:57:15.079Z,1021.05
2022-12-19T07:58:15.070Z,1021.09
2022-12-19T07:59:15.057Z,1021.21
2022-12-19T08:00:15.050Z,1021.11
2022-12-19T08:01:15.109Z,1021.08
2022-12-19T08:02:15.094Z,1021.09
2022-12-19T08:03:15.076Z,1021.09
2022-12-19T08:04:15.022Z,1021.06
2022-12-19T08:05:15.049Z,1021.09
2022-12-19T08:06:15.012Z,1021.10
2022-12-19T08:07:15.004Z,1021.10
2022-12-19T08:08:14.995Z,1021.09
2022-12-19T08:09:14.988Z,1021.06
2022-12-19T08:10:15.088Z,1021.04
2022-12-19T08:11:15.091Z,1021.02
2022-12-19T08:12:14.957Z,1021.05
2022-12-19T08:13:14.962Z,1020.98
2022-12-19T08:14:14.945Z,1020.98
2022-12-19T08:15:14.941Z,1020.93
2022-12-19T08:16:15.059Z,1020.84
2022-12-19T08:17:22.317Z,1020.91
2022-12-19T08:18:14.918Z,1020.91
2022-12-19T08:19:14.925Z,1020.83
2022-12-19T08:20:14.908Z,1020.85
2022-12-19T08:21:14.922Z,1020.84
2022-12-19T08:22:14.894Z,1020.80
2022-12-19T08:23:14.885Z,1020.76
2022-12-19T08:24:14.873Z,1020.84
2022-12-19T08:25:14.870Z,1020.79
2022-12-19T08:26:14.905Z,1020.80
2022-12-19T08:27:14.978Z,1020.87
2022-12-19T08:28:14.871Z,1020.79
2022-12-19T08:29:14.843Z,1020.78
2022-12-19T08:30:14.881Z,1020.74
2022-12-19T08:31:15.010Z,1020.74
2022-12-19T08:32:20.507Z,1020.61
2022-12-19T08:33:14.813Z,1020.69
2022-12-19T08:34:14.805Z,1020.71
2022-12-19T08:35:14.813Z,1020.69
2022-12-19T08:36:14.835Z,1020.63
2022-12-19T08:37:14.843Z,1020.64
2022-12-19T08:38:14.789Z,1020.67
2022-12-19T08:39:14.832Z,1020.60
2022-12-19T08:40:14.803Z,1020.62
2022-12-19T08:41:14.769Z,1020.64
2022-12-19T08:42:14.830Z,1020.65
2022-12-19T08:43:14.850Z,1020.70
2022-12-19T08:44:14.836Z,1020.64
2022-12-19T08:45:14.766Z,1020.71
2022-12-19T08:46:14.824Z,1020.75
2022-12-19T08:47:14.717Z,1020.70
2022-12-19T08:48:14.708Z,1020.71
2022-12-19T08:49:14.784Z,1020.72
2022-12-19T08:50:14.691Z,1020.66
2022-12-19T08:51:14.722Z,1020.73
2022-12-19T08:52:14.689Z,1020.69
2022-12-19T08:53:14.671Z,1020.64
2022-12-19T08:54:14.674Z,1020.53
2022-12-19T08:55:14.674Z,1020.57
2022-12-19T08:56:14.660Z,1020.54
2022-12-19T08:57:14.654Z,1020.54
2022-12-19T08:58:14.642Z,1020.55
2022-12-19T08:59:15.879Z,1020.45
2022-12-19T09:00:14.630Z,1020.50
2022-12-19T09:01:14.743Z,1020.40
2022-12-19T09:02:14.933Z,1020.41
2022-12-19T09:03:14.861Z,1020.30
2022-12-19T09:05:28.887Z,1020.23
2022-12-19T09:06:05.048Z,1020.28
2022-12-19T09:06:19.031Z,1020.28
2022-12-19T09:07:15.545Z,1020.25
2022-12-19T09:08:14.588Z,1020.27
2022-12-19T09:09:14.568Z,1020.19
2022-12-19T09:10:14.560Z,1020.25
2022-12-19T09:11:14.559Z,1020.20
2022-12-19T09:12:14.549Z,1020.25
2022-12-19T09:13:14.536Z,1020.17
2022-12-19T09:14:14.537Z,1020.18
2022-12-19T09:15:14.635Z,1020.29
2022-12-19T09:16:14.539Z,1020.15
2022-12-19T09:17:14.684Z,1020.14
2022-12-19T09:18:14.511Z,1020.18
2022-12-19T09:19:14.507Z,1020.09
2022-12-19T09:20:19.532Z,1020.15
2022-12-19T09:21:14.485Z,1020.12
2022-12-19T09:22:14.482Z,1020.13
2022-12-19T09:23:14.477Z,1020.02
2022-12-19T09:24:14.473Z,1019.98
2022-12-19T09:25:14.464Z,1020.02
2022-12-19T09:26:14.451Z,1020.00
2022-12-19T09:27:14.756Z,1019.97
2022-12-19T09:28:29.718Z,1019.99
2022-12-19T09:29:21.221Z,1019.96
2022-12-19T09:30:14.426Z,1019.97
2022-12-19T09:31:14.658Z,1019.92
2022-12-19T09:32:14.414Z,1019.95
2022-12-19T09:33:14.409Z,1019.83
2022-12-19T09:34:14.405Z,1019.83
2022-12-19T09:35:14.386Z,1019.82
2022-12-19T09:36:14.386Z,1019.73
2022-12-19T09:37:17.071Z,1019.71
2022-12-19T09:38:14.369Z,1019.59
2022-12-19T09:39:14.360Z,1019.59
2022-12-19T09:40:14.364Z,1019.54
2022-12-19T09:41:14.841Z,1019.55
2022-12-19T09:42:14.343Z,1019.53
2022-12-19T09:43:14.336Z,1019.56
2022-12-19T09:44:14.331Z,1019.58
2022-12-19T09:45:14.489Z,1019.56
2022-12-19T09:46:14.400Z,1019.59
2022-12-19T09:47:14.432Z,1019.62
2022-12-19T09:48:23.544Z,1019.52
2022-12-19T09:49:14.294Z,1019.54
2022-12-19T09:50:14.292Z,1019.59
2022-12-19T09:51:14.284Z,1019.66
2022-12-19T09:52:14.284Z,1019.62
2022-12-19T09:53:14.344Z,1019.56
2022-12-19T09:54:14.268Z,1019.55
2022-12-19T09:55:14.257Z,1019.55
2022-12-19T09:56:14.262Z,1019.49
2022-12-19T09:57:14.247Z,1019.55
2022-12-19T09:58:14.240Z,1019.53
2022-12-19T09:59:14.246Z,1019.47
2022-12-19T10:00:14.231Z,1019.48
2022-12-19T10:01:14.313Z,1019.50
2022-12-19T10:02:14.410Z,1019.52
2022-12-19T10:03:14.599Z,1019.43
2022-12-19T10:04:14.217Z,1019.39
2022-12-19T10:05:33.793Z,1019.43
2022-12-19T10:07:11.876Z,1019.35
2022-12-19T10:07:40.146Z,1019.42
2022-12-19T10:08:14.183Z,1019.35
2022-12-19T10:10:27.769Z,1019.40
2022-12-19T10:12:34.622Z,1019.37
2022-12-19T10:12:37.860Z,1019.34
2022-12-19T10:12:45.620Z,1019.32
2022-12-19T10:13:14.143Z,1019.30
2022-12-19T10:14:14.155Z,1019.29
2022-12-19T10:15:14.133Z,1019.30
2022-12-19T10:16:14.159Z,1019.26
2022-12-19T10:17:29.630Z,1019.23
2022-12-19T10:18:14.139Z,1019.21
2022-12-19T10:19:14.221Z,1019.19
2022-12-19T10:20:14.120Z,1019.14
2022-12-19T10:21:14.092Z,1019.21
2022-12-19T10:22:18.996Z,1019.24
2022-12-19T10:23:14.083Z,1019.09
2022-12-19T10:24:14.101Z,1019.10
2022-12-19T10:25:14.084Z,1019.09
2022-12-19T10:26:14.067Z,1019.17
2022-12-19T10:27:14.074Z,1019.07
2022-12-19T10:28:14.055Z,1019.13
2022-12-19T10:29:14.044Z,1019.09
2022-12-19T10:30:14.062Z,1019.03
2022-12-19T10:31:20.988Z,1019.03
2022-12-19T10:32:14.105Z,1019.10
2022-12-19T10:33:20.626Z,1019.06
2022-12-19T10:34:15.431Z,1019.03
2022-12-19T10:35:14.180Z,1019.08
2022-12-19T10:36:14.042Z,1018.99
2022-12-19T10:37:27.005Z,1018.97
2022-12-19T10:38:14.026Z,1018.97
2022-12-19T10:39:13.985Z,1018.88
2022-12-19T10:40:25.634Z,1018.91
2022-12-19T10:41:13.986Z,1018.82
2022-12-19T10:42:14.006Z,1018.84
2022-12-19T10:43:19.301Z,1018.80
2022-12-19T10:44:13.964Z,1018.77
2022-12-19T10:45:13.951Z,1018.74
2022-12-19T10:46:14.008Z,1018.74
2022-12-19T10:47:13.942Z,1018.78
2022-12-19T10:48:13.996Z,1018.68
2022-12-19T10:49:13.941Z,1018.63
2022-12-19T10:50:13.932Z,1018.70
2022-12-19T10:51:14.034Z,1018.71
2022-12-19T10:52:13.939Z,1018.63
2022-12-19T10:53:13.895Z,1018.65
2022-12-19T10:54:13.896Z,1018.69
2022-12-19T10:55:13.909Z,1018.63
2022-12-19T10:56:13.893Z,1018.65
2022-12-19T10:57:13.931Z,1018.62
2022-12-19T10:58:13.884Z,1018.66
2022-12-19T10:59:13.863Z,1018.53
2022-12-19T11:00:13.883Z,1018.46
2022-12-19T11:01:13.859Z,1018.49
2022-12-19T11:02:13.999Z,1018.55
2022-12-19T11:03:13.994Z,1018.50
2022-12-19T11:04:13.840Z,1018.48
2022-12-19T11:05:13.931Z,1018.52
2022-12-19T11:06:13.886Z,1018.53
2022-12-19T11:07:13.953Z,1018.48
2022-12-19T11:08:13.883Z,1018.51
2022-12-19T11:09:13.813Z,1018.40
2022-12-19T11:10:54.397Z,1018.38
2022-12-19T11:12:32.954Z,1018.37
2022-12-19T11:15:51.542Z,1018.35
2022-12-19T11:16:53.895Z,1018.30
2022-12-19T11:17:11.732Z,1018.22
2022-12-19T11:20:37.500Z,1018.22
2022-12-19T11:21:07.812Z,1018.21
2022-12-19T11:26:19.233Z,1018.21
2022-12-19T11:28:34.500Z,1018.27
2022-12-19T11:29:16.649Z,1018.24
2022-12-19T11:29:31.694Z,1018.13
2022-12-19T11:29:37.515Z,1018.23
2022-12-19T11:29:40.285Z,1018.18
2022-12-19T11:29:40.930Z,1018.12
2022-12-19T11:29:54.531Z,1018.19
2022-12-19T11:30:21.343Z,1018.10
2022-12-19T11:30:37.983Z,1018.07
2022-12-19T11:30:43.838Z,1018.01
2022-12-19T11:30:47.112Z,1018.14
2022-12-19T11:30:47.661Z,1017.99
2022-12-19T11:32:38.818Z,1017.94
2022-12-19T11:33:13.776Z,1017.94
2022-12-19T11:34:13.679Z,1017.85
2022-12-19T11:35:13.672Z,1017.91
2022-12-19T11:36:13.672Z,1017.91
2022-12-19T11:37:13.658Z,1017.86
2022-12-19T11:38:13.672Z,1017.84
2022-12-19T11:39:13.791Z,1017.89
2022-12-19T11:40:13.755Z,1017.81
2022-12-19T11:41:13.641Z,1017.82
2022-12-19T11:42:13.634Z,1017.77
2022-12-19T11:44:13.624Z,1017.78
2022-12-19T11:45:13.617Z,1017.82
2022-12-19T11:46:19.466Z,1017.74
2022-12-19T11:47:13.602Z,1017.69
2022-12-19T11:48:13.610Z,1017.68
2022-12-19T11:49:13.597Z,1017.69
2022-12-19T11:50:13.657Z,1017.59
2022-12-19T11:51:13.585Z,1017.59
2022-12-19T11:52:37.062Z,1017.60
2022-12-19T11:53:18.814Z,1017.52
2022-12-19T11:54:13.571Z,1017.53
2022-12-19T11:55:13.710Z,1017.66
2022-12-19T11:56:15.874Z,1017.55
2022-12-19T11:57:13.554Z,1017.47
2022-12-19T11:58:13.557Z,1017.53
2022-12-19T11:59:13.534Z,1017.63
2022-12-19T12:00:13.584Z,1017.55
2022-12-19T12:01:13.523Z,1017.57
2022-12-19T12:02:13.537Z,1017.45
2022-12-19T12:03:13.527Z,1017.47
2022-12-19T12:04:13.708Z,1017.50
2022-12-19T12:05:13.510Z,1017.57
2022-12-19T12:06:13.500Z,1017.52
2022-12-19T12:07:47.184Z,1017.54
2022-12-19T12:10:22.948Z,1017.51